Time,TemperatureF,DewpointF,PressureIn,WindDirection,WindDirectionDegrees,WindSpeedMPH,WindSpeedGustMPH,Humidity,HourlyPrecipIn,Conditions,Clouds,dailyrainin,SoftwareType,DateUTC
2013-01-31 00:00:00,55.8,55.2,29.39,SSE,151,10.0,13.0,98,0.00,,,0.00,Wunderground v.1.15,2013-01-31 05:00:00,
2013-01-31 00:05:00,55.7,54.9,29.39,West,262,11.0,13.0,97,0.00,,,0.00,Wunderground v.1.15,2013-01-31 05:05:00,
2013-01-31 00:10:00,55.6,54.8,29.39,South,185,10.0,10.0,97,0.00,,,0.00,Wunderground v.1.15,2013-01-31 05:10:00,
2013-01-31 00:15:00,55.5,54.7,29.39,SSE,161,10.0,13.0,97,0.00,,,0.00,Wunderground v.1.15,2013-01-31 05:15:00,
2013-01-31 00:20:00,55.5,54.7,29.39,SW,221,11.0,11.0,97,0.00,,,0.00,Wunderground v.1.15,2013-01-31 05:20:00,
2013-01-31 00:25:00,55.5,54.7,29.38,SW,225,12.0,12.0,97,0.00,,,0.00,Wunderground v.1.15,2013-01-31 05:25:00,
2013-01-31 00:30:00,55.6,54.8,29.38,SE,134,10.0,14.0,97,0.00,,,0.00,Wunderground v.1.15,2013-01-31 05:30:00,
2013-01-31 00:35:00,55.9,55.1,29.38,SSW,202,11.0,14.0,97,0.00,,,0.00,Wunderground v.1.15,2013-01-31 05:35:00,
2013-01-31 00:40:00,56.0,55.2,29.37,SE,136,12.0,12.0,97,0.00,,,0.00,Wunderground v.1.15,2013-01-31 05:40:00,
2013-01-31 00:50:00,56.3,55.5,29.36,South,172,11.0,11.0,97,0.00,,,0.00,Wunderground v.1.15,2013-01-31 05:50:00,
2013-01-31 00:55:00,56.4,55.6,29.34,SE,140,11.0,13.0,97,0.00,,,0.00,Wunderground v.1.15,2013-01-31 05:55:00,
2013-01-31 01:00:00,56.5,55.7,29.33,South,191,10.0,13.0,97,0.00,,,0.00,Wunderground v.1.15,2013-01-31 06:00:00,
2013-01-31 01:05:00,56.7,55.9,29.33,SW,218,10.0,13.0,97,0.00,,,0.00,Wunderground v.1.15,2013-01-31 06:05:00,
2013-01-31 01:10:00,56.9,56.1,29.33,WSW,252,11.0,11.0,97,0.00,,,0.00,Wunderground v.1.15,2013-01-31 06:10:00,
2013-01-31 01:20:00,56.6,55.5,29.30,SSE,167,10.0,10.0,96,0.00,,,0.00,Wunderground v.1.15,2013-01-31 06:20:00,
2013-01-31 01:25:00,56.3,55.2,29.30,South,169,11.0,13.0,96,0.00,,,0.00,Wunderground v.1.15,2013-01-31 06:25:00,
2013-01-31 01:30:00,55.8,54.7,29.28,South,186,11.0,13.0,96,0.00,,,0.00,Wunderground v.1.15,2013-01-31 06:30:00,
2013-01-31 01:35:00,55.4,54.3,29.28,SSE,156,10.0,13.0,96,0.00,,,0.00,Wunderground v.1.15,2013-01-31 06:35:00,
2013-01-31 01:40:00,54.9,53.8,29.27,South,190,9.0,15.0,96,0.00,,,0.00,Wunderground v.1.15,2013-01-31 06:40:00,
2013-01-31 01:50:00,54.7,53.9,29.25,South,175,8.0,13.0,97,0.00,,,0.00,Wunderground v.1.15,2013-01-31 06:50:00,
2013-01-31 01:55:00,54.9,54.1,29.25,South,172,8.0,18.0,97,0.00,,,0.00,Wunderground v.1.15,2013-01-31 06:55:00,
2013-01-31 02:00:00,55.3,54.5,29.25,SE,138,8.0,8.0,97,0.00,,,0.00,Wunderground v.1.15,2013-01-31 07:00:00,
2013-01-31 02:10:00,56.0,55.2,29.23,South,173,9.0,14.0,97,0.00,,,0.00,Wunderground v.1.15,2013-01-31 07:10:00,
2013-01-31 02:15:00,56.2,55.4,29.22,SSE,156,9.0,14.0,97,0.00,,,0.00,Wunderground v.1.15,2013-01-31 07:15:00,
2013-01-31 02:20:00,56.3,55.5,29.22,SW,214,9.0,9.0,97,0.00,,,0.00,Wunderground v.1.15,2013-01-31 07:20:00,
2013-01-31 02:25:00,56.6,55.8,29.21,SW,229,10.0,18.0,97,0.00,,,0.00,Wunderground v.1.15,2013-01-31 07:25:00,
2013-01-31 02:30:00,56.6,55.8,29.20,South,179,10.0,13.0,97,0.00,,,0.00,Wunderground v.1.15,2013-01-31 07:30:00,
2013-01-31 02:40:00,56.4,55.3,29.20,ESE,123,9.0,9.0,96,0.00,,,0.00,Wunderground v.1.15,2013-01-31 07:40:00,
2013-01-31 02:45:00,56.3,55.2,29.19,South,172,8.0,13.0,96,0.00,,,0.00,Wunderground v.1.15,2013-01-31 07:45:00,
2013-01-31 02:50:00,56.2,55.1,29.18,ESE,107,8.0,13.0,96,0.00,,,0.00,Wunderground v.1.15,2013-01-31 07:50:00,
2013-01-31 02:55:00,56.2,55.1,29.18,SSW,198,9.0,13.0,96,0.00,,,0.00,Wunderground v.1.15,2013-01-31 07:55:00,
2013-01-31 03:00:00,56.3,55.2,29.18,SE,139,10.0,13.0,96,0.00,,,0.00,Wunderground v.1.15,2013-01-31 08:00:00,
2013-01-31 03:10:00,55.9,54.8,29.18,South,183,9.0,9.0,96,0.11,,,0.02,Wunderground v.1.15,2013-01-31 08:10:00,
2013-01-31 03:15:00,55.6,54.8,29.18,SSE,156,9.0,13.0,97,0.16,,,0.03,Wunderground v.1.15,2013-01-31 08:15:00,
2013-01-31 03:20:00,55.4,54.6,29.17,WSW,254,9.0,13.0,97,0.13,,,0.04,Wunderground v.1.15,2013-01-31 08:20:00,
2013-01-31 03:25:00,55.4,54.6,29.18,South,169,10.0,13.0,97,0.09,,,0.05,Wunderground v.1.15,2013-01-31 08:25:00,
2013-01-31 03:30:00,55.5,54.7,29.18,South,178,11.0,11.0,97,0.08,,,0.06,Wunderground v.1.15,2013-01-31 08:30:00,
2013-01-31 03:40:00,56.2,55.4,29.17,South,177,13.0,17.0,97,0.08,,,0.07,Wunderground v.1.15,2013-01-31 08:40:00,
2013-01-31 03:45:00,56.4,55.8,29.18,South,180,13.0,17.0,98,0.06,,,0.08,Wunderground v.1.15,2013-01-31 08:45:00,
2013-01-31 03:50:00,56.7,55.9,29.19,SSE,153,12.0,12.0,97,0.06,,,0.08,Wunderground v.1.15,2013-01-31 08:50:00,
2013-01-31 04:00:00,57.4,56.8,29.20,WSW,257,6.0,13.0,98,0.04,,,0.09,Wunderground v.1.15,2013-01-31 09:00:00,
2013-01-31 04:05:00,57.8,57.2,29.21,West,260,5.0,13.0,98,0.63,,,0.13,Wunderground v.1.15,2013-01-31 09:05:00,
2013-01-31 04:10:00,58.3,57.7,29.22,WNW,294,5.0,5.0,98,0.53,,,0.19,Wunderground v.1.15,2013-01-31 09:10:00,
2013-01-31 04:15:00,58.5,57.9,29.22,SW,226,5.0,13.0,98,0.25,,,0.23,Wunderground v.1.15,2013-01-31 09:15:00,
2013-01-31 04:20:00,58.5,57.9,29.21,SSW,210,3.0,13.0,98,0.12,,,0.24,Wunderground v.1.15,2013-01-31 09:20:00,
2013-01-31 04:30:00,58.1,57.3,29.21,WSW,241,2.0,2.0,97,0.16,,,0.26,Wunderground v.1.15,2013-01-31 09:30:00,
2013-01-31 04:35:00,57.9,57.1,29.20,SSW,199,2.0,13.0,97,0.13,,,0.27,Wunderground v.1.15,2013-01-31 09:35:00,
2013-01-31 04:40:00,57.8,57.2,29.19,SSW,202,2.0,2.0,98,0.14,,,0.28,Wunderground v.1.15,2013-01-31 09:40:00,
2013-01-31 04:45:00,57.6,56.8,29.19,SW,230,2.0,13.0,97,0.06,,,0.28,Wunderground v.1.15,2013-01-31 09:45:00,
2013-01-31 04:50:00,57.5,56.7,29.21,SSW,194,2.0,13.0,97,0.04,,,0.28,Wunderground v.1.15,2013-01-31 09:50:00,
2013-01-31 05:00:00,57.5,56.9,29.20,SSW,194,2.0,13.0,98,0.12,,,0.30,Wunderground v.1.15,2013-01-31 10:00:00,
2013-01-31 05:05:00,57.4,56.8,29.19,WSW,242,2.0,13.0,98,0.07,,,0.31,Wunderground v.1.15,2013-01-31 10:05:00,
2013-01-31 05:10:00,57.3,56.7,29.19,SW,232,3.0,13.0,98,0.07,,,0.31,Wunderground v.1.15,2013-01-31 10:10:00,
2013-01-31 05:15:00,57.3,56.7,29.19,SSW,209,4.0,13.0,98,0.05,,,0.31,Wunderground v.1.15,2013-01-31 10:15:00,
2013-01-31 05:20:00,57.3,56.7,29.20,WSW,238,5.0,13.0,98,0.04,,,0.31,Wunderground v.1.15,2013-01-31 10:20:00,
2013-01-31 05:30:00,57.2,56.4,29.18,SW,232,4.0,13.0,97,0.00,,,0.31,Wunderground v.1.15,2013-01-31 10:30:00,
2013-01-31 05:35:00,57.1,56.3,29.18,South,186,3.0,13.0,97,0.00,,,0.32,Wunderground v.1.15,2013-01-31 10:35:00,
2013-01-31 05:40:00,57.0,56.2,29.19,SSW,198,2.0,13.0,97,0.00,,,0.32,Wunderground v.1.15,2013-01-31 10:40:00,
2013-01-31 05:50:00,57.0,56.2,29.19,SSW,209,3.0,3.0,97,0.00,,,0.32,Wunderground v.1.15,2013-01-31 10:50:00,
2013-01-31 05:55:00,57.1,56.3,29.20,SSW,196,3.0,13.0,97,0.00,,,0.32,Wunderground v.1.15,2013-01-31 10:55:00,
2013-01-31 06:00:00,56.9,56.1,29.20,South,188,4.0,13.0,97,0.00,,,0.32,Wunderground v.1.15,2013-01-31 11:00:00,
2013-01-31 06:05:00,56.5,55.4,29.21,SW,230,6.0,13.0,96,0.00,,,0.32,Wunderground v.1.15,2013-01-31 11:05:00,
2013-01-31 06:10:00,56.0,54.6,29.21,South,186,5.0,13.0,95,0.00,,,0.32,Wunderground v.1.15,2013-01-31 11:10:00,
2013-01-31 06:20:00,55.5,53.5,29.22,SSW,209,5.0,5.0,93,0.00,,,0.32,Wunderground v.1.15,2013-01-31 11:20:00,
2013-01-31 06:25:00,55.4,53.1,29.22,SW,223,5.0,7.0,92,0.00,,,0.32,Wunderground v.1.15,2013-01-31 11:25:00,
2013-01-31 06:30:00,55.3,52.7,29.23,SW,224,5.0,13.0,91,0.00,,,0.32,Wunderground v.1.15,2013-01-31 11:30:00,
2013-01-31 06:35:00,55.2,52.6,29.23,WSW,247,5.0,13.0,91,0.00,,,0.32,Wunderground v.1.15,2013-01-31 11:35:00,
2013-01-31 06:40:00,54.6,51.4,29.27,WSW,258,4.0,4.0,89,0.00,,,0.32,Wunderground v.1.15,2013-01-31 11:40:00,
2013-01-31 06:50:00,51.5,47.8,29.29,SSW,211,3.0,13.0,87,0.00,,,0.32,Wunderground v.1.15,2013-01-31 11:50:00,
2013-01-31 06:55:00,50.3,46.0,29.29,West,259,3.0,13.0,85,0.00,,,0.32,Wunderground v.1.15,2013-01-31 11:55:00,
2013-01-31 07:00:00,49.2,43.6,29.29,South,172,3.0,3.0,81,0.00,,,0.32,Wunderground v.1.15,2013-01-31 12:00:00,
2013-01-31 07:05:00,48.5,42.0,29.30,WSW,258,3.0,4.0,78,0.00,,,0.32,Wunderground v.1.15,2013-01-31 12:05:00,
2013-01-31 07:10:00,48.1,40.9,29.31,WSW,246,4.0,4.0,76,0.00,,,0.32,Wunderground v.1.15,2013-01-31 12:10:00,
2013-01-31 07:20:00,47.6,40.7,29.32,SW,221,4.0,13.0,77,0.00,,,0.32,Wunderground v.1.15,2013-01-31 12:20:00,
2013-01-31 07:25:00,47.4,41.2,29.33,WSW,246,4.0,13.0,79,0.00,,,0.32,Wunderground v.1.15,2013-01-31 12:25:00,
2013-01-31 07:30:00,47.3,40.8,29.33,West,262,4.0,4.0,78,0.00,,,0.32,Wunderground v.1.15,2013-01-31 12:30:00,
2013-01-31 07:35:00,47.2,40.7,29.34,SW,223,3.0,13.0,78,0.00,,,0.32,Wunderground v.1.15,2013-01-31 12:35:00,
2013-01-31 07:40:00,47.2,40.7,29.34,WNW,282,3.0,13.0,78,0.00,,,0.32,Wunderground v.1.15,2013-01-31 12:40:00,
2013-01-31 07:50:00,47.2,40.7,29.35,SW,230,3.0,13.0,78,0.00,,,0.32,Wunderground v.1.15,2013-01-31 12:50:00,
2013-01-31 07:55:00,47.2,40.7,29.36,WSW,254,2.0,13.0,78,0.00,,,0.32,Wunderground v.1.15,2013-01-31 12:55:00,
2013-01-31 08:00:00,47.2,40.4,29.37,West,260,3.0,13.0,77,0.00,,,0.32,Wunderground v.1.15,2013-01-31 13:00:00,
2013-01-31 08:10:00,46.5,40.0,29.38,West,262,2.0,13.0,78,0.00,,,0.32,Wunderground v.1.15,2013-01-31 13:10:00,
2013-01-31 08:15:00,46.4,40.2,29.39,SW,236,2.0,13.0,79,0.00,,,0.32,Wunderground v.1.15,2013-01-31 13:15:00,
2013-01-31 08:20:00,46.3,39.1,29.39,NNE,25,3.0,3.0,76,0.00,,,0.32,Wunderground v.1.15,2013-01-31 13:20:00,
2013-01-31 08:25:00,46.2,38.7,29.40,West,276,3.0,6.0,75,0.00,,,0.32,Wunderground v.1.15,2013-01-31 13:25:00,
2013-01-31 08:30:00,46.1,38.3,29.41,SSE,163,3.0,13.0,74,0.00,,,0.32,Wunderground v.1.15,2013-01-31 13:30:00,
2013-01-31 08:40:00,45.4,35.8,29.42,WSW,240,5.0,5.0,69,0.00,,,0.32,Wunderground v.1.15,2013-01-31 13:40:00,
2013-01-31 08:45:00,45.8,35.8,29.42,NNW,331,4.0,13.0,68,0.00,,,0.32,Wunderground v.1.15,2013-01-31 13:45:00,
2013-01-31 08:50:00,46.3,36.3,29.43,West,260,4.0,4.0,68,0.00,,,0.32,Wunderground v.1.15,2013-01-31 13:50:00,
2013-01-31 08:55:00,46.5,36.9,29.43,SW,227,4.0,13.0,69,0.00,,,0.32,Wunderground v.1.15,2013-01-31 13:55:00,
2013-01-31 09:00:00,46.4,36.4,29.44,WSW,237,4.0,4.0,68,0.00,,,0.32,Wunderground v.1.15,2013-01-31 14:00:00,
2013-01-31 09:10:00,46.1,35.0,29.45,West,271,4.0,13.0,65,0.00,,,0.32,Wunderground v.1.15,2013-01-31 14:10:00,
2013-01-31 09:15:00,45.9,34.8,29.46,WSW,241,4.0,13.0,65,0.00,,,0.32,Wunderground v.1.15,2013-01-31 14:15:00,
2013-01-31 09:20:00,45.9,34.4,29.46,WNW,302,4.0,4.0,64,0.00,,,0.32,Wunderground v.1.15,2013-01-31 14:20:00,
2013-01-31 09:25:00,46.1,34.2,29.46,WSW,237,4.0,13.0,63,0.00,,,0.32,Wunderground v.1.15,2013-01-31 14:25:00,
2013-01-31 09:30:00,46.1,34.6,29.47,West,269,4.0,4.0,64,0.00,,,0.32,Wunderground v.1.15,2013-01-31 14:30:00,
2013-01-31 09:40:00,46.5,35.0,29.47,WSW,257,3.0,3.0,64,0.00,,,0.32,Wunderground v.1.15,2013-01-31 14:40:00,
2013-01-31 09:45:00,46.4,34.5,29.47,West,271,3.0,13.0,63,0.00,,,0.32,Wunderground v.1.15,2013-01-31 14:45:00,
2013-01-31 09:50:00,46.2,34.7,29.48,SW,235,4.0,4.0,64,0.00,,,0.32,Wunderground v.1.15,2013-01-31 14:50:00,
2013-01-31 10:00:00,46.4,34.5,29.49,WNW,284,3.0,3.0,63,0.00,,,0.32,Wunderground v.1.15,2013-01-31 15:00:00,
2013-01-31 10:05:00,46.3,33.6,29.49,WSW,250,4.0,4.0,61,0.00,,,0.32,Wunderground v.1.15,2013-01-31 15:05:00,
2013-01-31 10:10:00,46.2,33.5,29.49,WSW,242,4.0,13.0,61,0.00,,,0.32,Wunderground v.1.15,2013-01-31 15:10:00,
2013-01-31 10:15:00,46.2,33.9,29.50,WSW,240,4.0,13.0,62,0.00,,,0.32,Wunderground v.1.15,2013-01-31 15:15:00,
2013-01-31 10:20:00,46.4,33.7,29.50,WSW,246,4.0,4.0,61,0.00,,,0.32,Wunderground v.1.15,2013-01-31 15:20:00,
2013-01-31 10:30:00,46.4,33.3,29.51,WSW,252,3.0,13.0,60,0.00,,,0.32,Wunderground v.1.15,2013-01-31 15:30:00,
2013-01-31 10:35:00,46.4,32.8,29.51,SW,222,3.0,13.0,59,0.00,,,0.32,Wunderground v.1.15,2013-01-31 15:35:00,
2013-01-31 10:40:00,46.2,33.1,29.52,WSW,242,4.0,4.0,60,0.00,,,0.32,Wunderground v.1.15,2013-01-31 15:40:00,
2013-01-31 10:45:00,46.0,33.7,29.52,WNW,283,4.0,13.0,62,0.00,,,0.32,Wunderground v.1.15,2013-01-31 15:45:00,
2013-01-31 10:55:00,45.6,32.9,29.53,West,264,4.0,13.0,61,0.00,,,0.32,Wunderground v.1.15,2013-01-31 15:55:00,
2013-01-31 11:00:00,45.7,32.6,29.53,West,273,4.0,13.0,60,0.00,,,0.32,Wunderground v.1.15,2013-01-31 16:00:00,
2013-01-31 11:05:00,45.8,33.1,29.53,SSW,205,4.0,13.0,61,0.00,,,0.32,Wunderground v.1.15,2013-01-31 16:05:00,
2013-01-31 11:10:00,45.8,31.4,29.53,WSW,248,4.0,4.0,57,0.00,,,0.32,Wunderground v.1.15,2013-01-31 16:10:00,
2013-01-31 11:15:00,45.8,30.1,29.53,WSW,250,5.0,6.0,54,0.00,,,0.32,Wunderground v.1.15,2013-01-31 16:15:00,
2013-01-31 11:25:00,46.4,31.5,29.54,SW,233,4.0,9.0,56,0.00,,,0.32,Wunderground v.1.15,2013-01-31 16:25:00,
2013-01-31 11:30:00,46.4,31.5,29.54,WSW,242,4.0,13.0,56,0.00,,,0.32,Wunderground v.1.15,2013-01-31 16:30:00,
2013-01-31 11:35:00,46.4,32.0,29.54,SSW,202,4.0,13.0,57,0.00,,,0.32,Wunderground v.1.15,2013-01-31 16:35:00,
2013-01-31 11:45:00,46.0,30.3,29.54,SW,236,4.0,13.0,54,0.00,,,0.32,Wunderground v.1.15,2013-01-31 16:45:00,
2013-01-31 11:50:00,46.2,31.4,29.55,NW,314,5.0,5.0,56,0.00,,,0.32,Wunderground v.1.15,2013-01-31 16:50:00,
2013-01-31 11:55:00,46.5,32.1,29.54,WNW,292,4.0,13.0,57,0.00,,,0.32,Wunderground v.1.15,2013-01-31 16:55:00,
2013-01-31 12:00:00,46.4,31.1,29.54,NW,309,4.0,13.0,55,0.00,,,0.32,Wunderground v.1.15,2013-01-31 17:00:00,
2013-01-31 12:10:00,46.5,30.7,29.54,WSW,244,5.0,5.0,54,0.00,,,0.32,Wunderground v.1.15,2013-01-31 17:10:00,
2013-01-31 12:15:00,46.8,32.4,29.54,SW,234,4.0,13.0,57,0.00,,,0.32,Wunderground v.1.15,2013-01-31 17:15:00,
2013-01-31 12:20:00,46.6,32.2,29.54,SW,226,4.0,4.0,57,0.00,,,0.32,Wunderground v.1.15,2013-01-31 17:20:00,
2013-01-31 12:25:00,46.0,32.0,29.54,SW,226,4.0,13.0,58,0.00,,,0.32,Wunderground v.1.15,2013-01-31 17:25:00,
2013-01-31 12:30:00,45.9,31.9,29.54,WSW,240,4.0,13.0,58,0.00,,,0.32,Wunderground v.1.15,2013-01-31 17:30:00,
2013-01-31 12:40:00,45.9,30.2,29.55,WSW,246,5.0,5.0,54,0.00,,,0.32,Wunderground v.1.15,2013-01-31 17:40:00,
2013-01-31 12:45:00,46.1,29.4,29.55,WSW,237,6.0,7.0,52,0.00,,,0.32,Wunderground v.1.15,2013-01-31 17:45:00,
2013-01-31 12:50:00,46.2,30.0,29.55,WNW,286,6.0,6.0,53,0.00,,,0.32,Wunderground v.1.15,2013-01-31 17:50:00,
2013-01-31 13:00:00,46.6,31.7,29.55,South,188,4.0,13.0,56,0.00,,,0.32,Wunderground v.1.15,2013-01-31 18:00:00,
2013-01-31 13:05:00,46.7,31.8,29.55,WSW,245,3.0,13.0,56,0.00,,,0.32,Wunderground v.1.15,2013-01-31 18:05:00,
2013-01-31 13:10:00,46.4,31.1,29.56,WSW,256,4.0,13.0,55,0.00,,,0.32,Wunderground v.1.15,2013-01-31 18:10:00,
2013-01-31 13:15:00,46.2,30.5,29.56,WSW,250,5.0,13.0,54,0.00,,,0.32,Wunderground v.1.15,2013-01-31 18:15:00,
2013-01-31 13:20:00,46.2,30.9,29.56,NW,308,5.0,13.0,55,0.00,,,0.32,Wunderground v.1.15,2013-01-31 18:20:00,
2013-01-31 13:30:00,46.4,32.0,29.56,WSW,253,4.0,13.0,57,0.00,,,0.32,Wunderground v.1.15,2013-01-31 18:30:00,
2013-01-31 13:35:00,46.5,32.5,29.57,WSW,251,4.0,13.0,58,0.00,,,0.32,Wunderground v.1.15,2013-01-31 18:35:00,
2013-01-31 13:40:00,46.4,32.4,29.57,NNE,30,4.0,4.0,58,0.00,,,0.32,Wunderground v.1.15,2013-01-31 18:40:00,
2013-01-31 13:45:00,46.4,30.6,29.58,WSW,240,4.0,13.0,54,0.00,,,0.32,Wunderground v.1.15,2013-01-31 18:45:00,
2013-01-31 13:50:00,46.1,29.4,29.58,SW,236,4.0,13.0,52,0.00,,,0.32,Wunderground v.1.15,2013-01-31 18:50:00,
2013-01-31 14:00:00,45.8,28.7,29.58,SW,232,4.0,4.0,51,0.00,,,0.32,Wunderground v.1.15,2013-01-31 19:00:00,
2013-01-31 14:05:00,45.7,28.6,29.58,SW,224,4.0,13.0,51,0.00,,,0.32,Wunderground v.1.15,2013-01-31 19:05:00,
2013-01-31 14:10:00,45.6,28.5,29.58,WSW,253,5.0,5.0,51,0.00,,,0.32,Wunderground v.1.15,2013-01-31 19:10:00,
2013-01-31 14:15:00,45.9,27.8,29.58,SSW,200,5.0,13.0,49,0.00,,,0.32,Wunderground v.1.15,2013-01-31 19:15:00,
2013-01-31 14:20:00,46.2,28.6,29.58,SW,217,3.0,3.0,50,0.00,,,0.32,Wunderground v.1.15,2013-01-31 19:20:00,
2013-01-31 14:30:00,46.0,28.9,29.58,SSW,205,4.0,13.0,51,0.00,,,0.32,Wunderground v.1.15,2013-01-31 19:30:00,
2013-01-31 14:35:00,46.3,29.6,29.59,SW,234,4.0,13.0,52,0.00,,,0.32,Wunderground v.1.15,2013-01-31 19:35:00,
2013-01-31 14:40:00,46.3,29.6,29.59,West,268,3.0,3.0,52,0.00,,,0.32,Wunderground v.1.15,2013-01-31 19:40:00,
2013-01-31 14:45:00,46.2,30.0,29.59,WSW,239,3.0,4.0,53,0.00,,,0.32,Wunderground v.1.15,2013-01-31 19:45:00,
2013-01-31 14:55:00,46.2,29.5,29.59,West,266,3.0,13.0,52,0.00,,,0.32,Wunderground v.1.15,2013-01-31 19:55:00,
2013-01-31 15:00:00,45.9,28.8,29.60,WSW,245,3.0,13.0,51,0.00,,,0.32,Wunderground v.1.15,2013-01-31 20:00:00,
2013-01-31 15:05:00,45.5,29.3,29.60,SSW,206,4.0,13.0,53,0.00,,,0.32,Wunderground v.1.15,2013-01-31 20:05:00,
2013-01-31 15:10:00,45.5,30.3,29.60,SW,223,4.0,13.0,55,0.00,,,0.32,Wunderground v.1.15,2013-01-31 20:10:00,
2013-01-31 15:20:00,45.2,29.5,29.61,WSW,252,3.0,13.0,54,0.00,,,0.32,Wunderground v.1.15,2013-01-31 20:20:00,
2013-01-31 15:25:00,45.0,30.2,29.61,SSW,213,4.0,13.0,56,0.00,,,0.32,Wunderground v.1.15,2013-01-31 20:25:00,
2013-01-31 15:30:00,45.4,30.2,29.61,East,90,4.0,4.0,55,0.00,,,0.32,Wunderground v.1.15,2013-01-31 20:30:00,
2013-01-31 15:35:00,45.6,29.4,29.62,NW,306,3.0,13.0,53,0.00,,,0.32,Wunderground v.1.15,2013-01-31 20:35:00,
2013-01-31 15:40:00,45.5,28.4,29.62,WSW,240,3.0,13.0,51,0.00,,,0.32,Wunderground v.1.15,2013-01-31 20:40:00,
2013-01-31 15:50:00,45.2,27.2,29.63,East,84,4.0,13.0,49,0.00,,,0.32,Wunderground v.1.15,2013-01-31 20:50:00,
2013-01-31 15:55:00,45.2,27.6,29.63,WSW,237,3.0,13.0,50,0.00,,,0.32,Wunderground v.1.15,2013-01-31 20:55:00,
2013-01-31 16:00:00,45.0,27.9,29.64,WSW,252,4.0,13.0,51,0.00,,,0.32,Wunderground v.1.15,2013-01-31 21:00:00,
2013-01-31 16:05:00,44.7,28.1,29.64,WSW,244,4.0,13.0,52,0.00,,,0.32,Wunderground v.1.15,2013-01-31 21:05:00,
2013-01-31 16:10:00,44.1,27.6,29.64,WSW,244,3.0,3.0,52,0.00,,,0.32,Wunderground v.1.15,2013-01-31 21:10:00,
2013-01-31 16:20:00,43.3,27.8,29.65,WSW,255,4.0,4.0,54,0.00,,,0.32,Wunderground v.1.15,2013-01-31 21:20:00,
2013-01-31 16:25:00,42.8,28.2,29.65,WSW,240,3.0,13.0,56,0.00,,,0.32,Wunderground v.1.15,2013-01-31 21:25:00,
2013-01-31 16:30:00,42.4,27.4,29.66,East,87,3.0,13.0,55,0.00,,,0.32,Wunderground v.1.15,2013-01-31 21:30:00,
2013-01-31 16:35:00,42.0,27.0,29.66,SW,214,3.0,13.0,55,0.00,,,0.32,Wunderground v.1.15,2013-01-31 21:35:00,
2013-01-31 16:45:00,41.6,27.1,29.67,WNW,287,3.0,13.0,56,0.00,,,0.32,Wunderground v.1.15,2013-01-31 21:45:00,
2013-01-31 16:50:00,41.4,27.7,29.67,SW,233,3.0,3.0,58,0.00,,,0.32,Wunderground v.1.15,2013-01-31 21:50:00,
2013-01-31 16:55:00,41.1,27.4,29.67,SW,230,2.0,13.0,58,0.00,,,0.32,Wunderground v.1.15,2013-01-31 21:55:00,
2013-01-31 17:00:00,40.9,27.7,29.68,WSW,253,2.0,2.0,59,0.00,,,0.32,Wunderground v.1.15,2013-01-31 22:00:00,
2013-01-31 17:10:00,40.4,27.2,29.68,WSW,250,3.0,3.0,59,0.00,,,0.32,Wunderground v.1.15,2013-01-31 22:10:00,
2013-01-31 17:15:00,40.1,27.3,29.69,WSW,256,3.0,4.0,60,0.00,,,0.32,Wunderground v.1.15,2013-01-31 22:15:00,
2013-01-31 17:20:00,39.8,26.6,29.70,North,360,3.0,3.0,59,0.00,,,0.32,Wunderground v.1.15,2013-01-31 22:20:00,
2013-01-31 17:25:00,39.5,25.9,29.70,NW,323,3.0,13.0,58,0.00,,,0.32,Wunderground v.1.15,2013-01-31 22:25:00,
2013-01-31 17:30:00,39.4,24.6,29.71,WSW,240,3.0,13.0,55,0.00,,,0.32,Wunderground v.1.15,2013-01-31 22:30:00,
2013-01-31 17:40:00,39.2,23.5,29.72,West,271,4.0,13.0,53,0.00,,,0.32,Wunderground v.1.15,2013-01-31 22:40:00,
2013-01-31 17:45:00,39.1,22.5,29.72,WSW,246,4.0,13.0,51,0.00,,,0.32,Wunderground v.1.15,2013-01-31 22:45:00,
2013-01-31 17:50:00,38.9,22.3,29.72,WSW,243,4.0,4.0,51,0.00,,,0.32,Wunderground v.1.15,2013-01-31 22:50:00,
2013-01-31 17:55:00,38.8,23.1,29.73,WSW,254,4.0,13.0,53,0.00,,,0.32,Wunderground v.1.15,2013-01-31 22:55:00,
2013-01-31 18:05:00,38.5,22.8,29.73,SW,234,3.0,13.0,53,0.00,,,0.32,Wunderground v.1.15,2013-01-31 23:05:00,
2013-01-31 18:10:00,38.4,23.2,29.74,SW,226,3.0,3.0,54,0.00,,,0.32,Wunderground v.1.15,2013-01-31 23:10:00,
2013-01-31 18:15:00,38.2,23.4,29.74,SW,234,3.0,5.0,55,0.00,,,0.32,Wunderground v.1.15,2013-01-31 23:15:00,
2013-01-31 18:20:00,38.1,23.8,29.75,WSW,240,2.0,13.0,56,0.00,,,0.32,Wunderground v.1.15,2013-01-31 23:20:00,
2013-01-31 18:25:00,38.0,23.7,29.75,West,262,2.0,13.0,56,0.00,,,0.32,Wunderground v.1.15,2013-01-31 23:25:00,
2013-01-31 18:35:00,37.9,23.6,29.75,West,275,3.0,13.0,56,0.00,,,0.32,Wunderground v.1.15,2013-01-31 23:35:00,
2013-01-31 18:40:00,37.8,24.3,29.76,SW,223,2.0,13.0,58,0.00,,,0.32,Wunderground v.1.15,2013-01-31 23:40:00,
2013-01-31 18:45:00,37.9,24.8,29.76,West,269,3.0,13.0,59,0.00,,,0.32,Wunderground v.1.15,2013-01-31 23:45:00,
2013-01-31 18:50:00,37.9,24.8,29.76,SW,230,4.0,13.0,59,0.00,,,0.32,Wunderground v.1.15,2013-01-31 23:50:00,
2013-01-31 18:55:00,38.0,24.5,29.76,WSW,241,4.0,13.0,58,0.00,,,0.32,Wunderground v.1.15,2013-01-31 23:55:00,
2013-01-31 19:05:00,38.0,21.9,29.77,SSW,211,4.0,13.0,52,0.00,,,0.32,Wunderground v.1.15,2013-02-01 00:05:00,
2013-01-31 19:10:00,37.9,21.8,29.77,WSW,240,4.0,4.0,52,0.00,,,0.32,Wunderground v.1.15,2013-02-01 00:10:00,
2013-01-31 19:15:00,37.7,21.2,29.76,WSW,238,3.0,13.0,51,0.00,,,0.32,Wunderground v.1.15,2013-02-01 00:15:00,
2013-01-31 19:25:00,37.5,21.5,29.77,NW,315,4.0,4.0,52,0.00,,,0.32,Wunderground v.1.15,2013-02-01 00:25:00,
2013-01-31 19:30:00,37.3,21.3,29.77,SSW,213,4.0,13.0,52,0.00,,,0.32,Wunderground v.1.15,2013-02-01 00:30:00,
2013-01-31 19:35:00,37.1,22.0,29.78,SSW,211,3.0,13.0,54,0.00,,,0.32,Wunderground v.1.15,2013-02-01 00:35:00,
2013-01-31 19:40:00,37.0,21.9,29.78,SW,234,2.0,13.0,54,0.00,,,0.32,Wunderground v.1.15,2013-02-01 00:40:00,
2013-01-31 19:45:00,36.9,21.8,29.78,West,259,3.0,13.0,54,0.00,,,0.32,Wunderground v.1.15,2013-02-01 00:45:00,
2013-01-31 19:55:00,36.9,21.8,29.78,WSW,238,4.0,13.0,54,0.00,,,0.32,Wunderground v.1.15,2013-02-01 00:55:00,
2013-01-31 20:00:00,36.9,21.8,29.78,SSW,205,4.0,4.0,54,0.00,,,0.32,Wunderground v.1.15,2013-02-01 01:00:00,
2013-01-31 20:05:00,36.8,22.6,29.78,NW,326,3.0,6.0,56,0.00,,,0.32,Wunderground v.1.15,2013-02-01 01:05:00,
2013-01-31 20:10:00,36.7,22.9,29.79,WSW,251,3.0,13.0,57,0.00,,,0.32,Wunderground v.1.15,2013-02-01 01:10:00,
2013-01-31 20:15:00,36.8,22.6,29.79,WSW,249,3.0,13.0,56,0.00,,,0.32,Wunderground v.1.15,2013-02-01 01:15:00,
2013-01-31 20:25:00,36.5,23.5,29.80,SW,234,2.0,13.0,59,0.00,,,0.32,Wunderground v.1.15,2013-02-01 01:25:00,
2013-01-31 20:30:00,36.4,23.4,29.80,South,178,2.0,13.0,59,0.00,,,0.32,Wunderground v.1.15,2013-02-01 01:30:00,
2013-01-31 20:35:00,36.3,22.5,29.80,NW,317,2.0,13.0,57,0.00,,,0.32,Wunderground v.1.15,2013-02-01 01:35:00,
2013-01-31 20:40:00,36.3,22.5,29.80,NW,317,3.0,3.0,57,0.00,,,0.32,Wunderground v.1.15,2013-02-01 01:40:00,
2013-01-31 20:45:00,36.2,22.4,29.80,NW,325,3.0,5.0,57,0.00,,,0.32,Wunderground v.1.15,2013-02-01 01:45:00,
2013-01-31 20:55:00,36.2,22.0,29.81,WNW,286,4.0,13.0,56,0.00,,,0.32,Wunderground v.1.15,2013-02-01 01:55:00,
2013-01-31 21:00:00,36.1,21.9,29.81,West,268,4.0,4.0,56,0.00,,,0.32,Wunderground v.1.15,2013-02-01 02:00:00,
2013-01-31 21:05:00,35.9,21.7,29.81,WSW,249,3.0,13.0,56,0.00,,,0.32,Wunderground v.1.15,2013-02-01 02:05:00,
2013-01-31 21:15:00,35.8,20.8,29.82,SW,230,5.0,13.0,54,0.00,,,0.32,Wunderground v.1.15,2013-02-01 02:15:00,
2013-01-31 21:20:00,35.6,21.0,29.82,WSW,237,4.0,13.0,55,0.00,,,0.32,Wunderground v.1.15,2013-02-01 02:20:00,
2013-01-31 21:25:00,35.5,20.5,29.83,SW,232,4.0,13.0,54,0.00,,,0.32,Wunderground v.1.15,2013-02-01 02:25:00,
2013-01-31 21:30:00,35.3,19.9,29.83,ESE,113,5.0,13.0,53,0.00,,,0.32,Wunderground v.1.15,2013-02-01 02:30:00,
2013-01-31 21:35:00,35.0,18.7,29.83,WSW,255,5.0,13.0,51,0.00,,,0.32,Wunderground v.1.15,2013-02-01 02:35:00,
2013-01-31 21:45:00,34.4,18.1,29.83,West,261,3.0,13.0,51,0.00,,,0.32,Wunderground v.1.15,2013-02-01 02:45:00,
2013-01-31 21:50:00,34.4,19.9,29.84,WSW,238,3.0,13.0,55,0.00,,,0.32,Wunderground v.1.15,2013-02-01 02:50:00,
2013-01-31 21:55:00,34.4,21.1,29.84,SE,128,3.0,13.0,58,0.00,,,0.32,Wunderground v.1.15,2013-02-01 02:55:00,
2013-01-31 22:00:00,34.0,21.2,29.85,WNW,284,4.0,4.0,59,0.00,,,0.32,Wunderground v.1.15,2013-02-01 03:00:00,
2013-01-31 22:05:00,33.7,20.9,29.85,WSW,238,3.0,6.0,59,0.00,,,0.32,Wunderground v.1.15,2013-02-01 03:05:00,
2013-01-31 22:15:00,33.1,19.9,29.86,WSW,244,3.0,13.0,58,0.00,,,0.32,Wunderground v.1.15,2013-02-01 03:15:00,
2013-01-31 22:20:00,32.8,18.8,29.86,WSW,249,3.0,3.0,56,0.00,,,0.32,Wunderground v.1.15,2013-02-01 03:20:00,
2013-01-31 22:25:00,32.7,18.3,29.86,WSW,251,3.0,13.0,55,0.00,,,0.32,Wunderground v.1.15,2013-02-01 03:25:00,
2013-01-31 22:30:00,32.6,17.8,29.86,WSW,250,3.0,3.0,54,0.00,,,0.32,Wunderground v.1.15,2013-02-01 03:30:00,
2013-01-31 22:40:00,32.6,18.2,29.86,WNW,301,3.0,13.0,55,0.00,,,0.32,Wunderground v.1.15,2013-02-01 03:40:00,
2013-01-31 22:45:00,32.5,18.1,29.87,West,264,3.0,13.0,55,0.00,,,0.32,Wunderground v.1.15,2013-02-01 03:45:00,
2013-01-31 22:50:00,32.5,17.2,29.87,NW,310,3.0,3.0,53,0.00,,,0.32,Wunderground v.1.15,2013-02-01 03:50:00,
2013-01-31 22:55:00,32.4,17.2,29.87,WNW,300,2.0,13.0,53,0.00,,,0.32,Wunderground v.1.15,2013-02-01 03:55:00,
2013-01-31 23:05:00,32.4,16.3,29.87,SW,232,3.0,13.0,51,0.00,,,0.32,Wunderground v.1.15,2013-02-01 04:05:00,
2013-01-31 23:10:00,32.3,16.2,29.87,West,279,3.0,3.0,51,0.00,,,0.32,Wunderground v.1.15,2013-02-01 04:10:00,
2013-01-31 23:15:00,32.4,16.3,29.86,North,349,3.0,7.0,51,0.00,,,0.32,Wunderground v.1.15,2013-02-01 04:15:00,
2013-01-31 23:20:00,32.4,16.3,29.86,WNW,287,3.0,3.0,51,0.00,,,0.32,Wunderground v.1.15,2013-02-01 04:20:00,
2013-01-31 23:25:00,32.3,16.6,29.86,North,5,2.0,5.0,52,0.00,,,0.32,Wunderground v.1.15,2013-02-01 04:25:00,
2013-01-31 23:35:00,32.2,16.5,29.86,NNE,14,2.0,13.0,52,0.00,,,0.32,Wunderground v.1.15,2013-02-01 04:35:00,
2013-01-31 23:40:00,32.3,16.2,29.87,West,277,2.0,13.0,51,0.00,,,0.32,Wunderground v.1.15,2013-02-01 04:40:00,
2013-01-31 23:45:00,32.3,16.2,29.87,WSW,237,2.0,13.0,51,0.00,,,0.32,Wunderground v.1.15,2013-02-01 04:45:00,
2013-01-31 23:50:00,32.4,16.7,29.87,WNW,298,2.0,13.0,52,0.00,,,0.32,Wunderground v.1.15,2013-02-01 04:50:00,
2013-01-31 23:55:00,32.4,16.7,29.87,WSW,241,2.0,13.0,52,0.00,,,0.32,Wunderground v.1.15,2013-02-01 04:55:00,